Startpagina
METAR-TAF:

METAR-TAF

Vliegvelden :

Luchthaven Libreville Internationaal

Libreville, Gabon

breedte: 00-27N, lengte: 009-25E, hoogte: 12 m

Actueel weer

Dit bericht is 21 minuten geleden gemaakt, om 08:30 UTC
Wind 10 kt uit het zuidzuidoosten
Temperatuur 27°C
Vochtigheid 79%
Druk 1014 hPa
Zicht 10 km of meer
Weinig wolken op 1000 ft
Verspreide wolken op 4600 ft

METAR: FOOL 190830Z 16010KT 9999 FEW010 SCT046 27/23 Q1014 NOSIG

Tijdstip: 09:51 (08:51 UTC)

Verwachting

Dit bericht is 3 uur en het 51 minuten geleden gemaakt, om 05:00 UTC
Verwachting geldig van 19 om 06 UTC tot 20 om 12 UTC
Wind 6 kt uit het zuidzuidoosten
Zicht 10 km of meer
Verspreide wolken op 1000 ft
Gebroken wolken op 3000 ft
Kans 30% :
Tijdelijke
van 19 om 17 UTC tot 19 om 22 UTC
Verspreide wolken op 1000 ft
Weinig wolken op 2000 ft, Cumulonimbus.
Gebroken wolken op 3000 ft
onweer

TAF: FOOL 190500Z 1906/2012 16006KT 9999 SCT010 BKN030 PROB30 TEMPO 1917/1922 TS SCT010 FEW020CB BKN030

Waarnemingen en weersverwachtingen van meer dan 4000 vliegvelden (METAR en TAF).

De beschikbare stations zijn de gele en rode punten op de kaart.

Ga met uw muis naar het station om de naam te zien.

Klik dan om waarnemingen en weersverwachtingen te zien.

kaart wijzigen: klik op de groene knoppen met een zwart kruis om in te zoomen, op de groene knop met een streepje om uit te zoomen of op de groene pijlen voor aangrenzende kaarten.


METAR-TAF: